Welcome to Northern Hawkes Bay. New Zealand.
PWS Header
      nz Flag



Hit Counter


W3C Valid W3C Valid logo


    Wairoa

Select any of the Stations below to visit their websites.










Historic Data from Weather Underground
Select the location of interest below. Wairoa is the default. Please have patience, this Data is slow to load in.
Northern Hawkes Bay Historical Data
Daily Summary for February 24, 2017 Units:  English    Metric   Both
« Previous Day
Next Day »
Daily Weekly Monthly Yearly Custom
  High: Low: Average:
Temperature: 72.1 °F 54.9 °F 64.2 °F
Dew Point: 62.2 °F 53.2 °F 58.1 °F
Humidity: 98% 57% 82%
Wind Speed: 14.5mph 0mph 4.3mph
Wind Gust: 20.6mph - -
Wind- - SSW
Pressure: 30.2 in 30.1 in -
Precipitation: 0.05 in    
Historical Graphs
 
 
Tabular Data for February 24, 2017
Time Temperature Dew Point Pressure Wind Wind Speed Wind Gust Humidity Rainfall Rate (Hourly) solar
00:04 65.5 °F 61.2 °F 30.2 in SSE 3.8 mph 9.8 mph 86% 0 in 0 W/m2
00:09 65.5 °F 61.2 °F 30.2 in South 4.5 mph 8.3 mph 86% 0 in 0 W/m2
00:14 65.5 °F 61.2 °F 30.2 in SSE 6 mph 9.2 mph 86% 0 in 0 W/m2
00:19 65.3 °F 61.3 °F 30.2 in South 3.8 mph 9.2 mph 87% 0 in 0 W/m2
00:24 64.9 °F 61.5 °F 30.2 in South 6 mph 9.8 mph 89% 0 in 0 W/m2
00:29 64.8 °F 61.5 °F 30.2 in SSW 5.4 mph 10.7 mph 89% 0 in 0 W/m2
00:34 64.6 °F 61.5 °F 30.2 in SSW 3.8 mph 10.7 mph 90% 0 in 0 W/m2
00:39 64.6 °F 61.9 °F 30.2 in SSW 6 mph 9.8 mph 91% 0 in 0 W/m2
00:44 64.9 °F 62.2 °F 30.2 in South 8.3 mph 10.7 mph 91% 0 in 0 W/m2
00:49 65.1 °F 62.1 °F 30.2 in South 8.3 mph 10.7 mph 90% 0 in 0 W/m2
00:54 65.1 °F 61.9 °F 30.2 in SSW 4.5 mph 10.7 mph 89% 0 in 0 W/m2
00:59 64.9 °F 61.5 °F 30.2 in SSW 3.8 mph 10.7 mph 89% 0 in 0 W/m2
01:04 64.8 °F 61.9 °F 30.2 in South 6 mph 9.8 mph 90% 0 in 0 W/m2
01:09 64.6 °F 61.3 °F 30.2 in South 5.4 mph 9.8 mph 89% 0 in 0 W/m2
01:14 64.8 °F 61.2 °F 30.2 in South 3.8 mph 9.8 mph 88% 0 in 0 W/m2
01:19 64.8 °F 61.2 °F 30.2 in SSE 3.1 mph 9.8 mph 88% 0 in 0 W/m2
01:24 64.2 °F 61.2 °F 30.2 in SSE 3.1 mph 12.1 mph 90% 0 in 0 W/m2
01:29 63.5 °F 60.8 °F 30.2 in SSE 3.1 mph 12.1 mph 91% 0 in 0 W/m2
01:34 63.3 °F 61 °F 30.2 in South 0.7 mph 7.6 mph 92% 0 in 0 W/m2
01:39 63.3 °F 61.3 °F 30.2 in South 3.8 mph 5.4 mph 93% 0 in 0 W/m2
01:44 63.5 °F 61.5 °F 30.2 in South 6 mph 9.8 mph 93% 0 in 0 W/m2
01:49 63.5 °F 61.2 °F 30.2 in SSW 6 mph 9.8 mph 92% 0 in 0 W/m2
01:53 63.7 °F 61 °F 30.2 in SSW 3.1 mph 10.7 mph 91% 0 in 0 W/m2
01:58 64 °F 61.3 °F 30.2 in SSW 4.5 mph 10.7 mph 91% 0 in 0 W/m2
02:03 63.7 °F 61 °F 30.2 in SSW 7.6 mph 10.7 mph 91% 0 in 0 W/m2
02:08 63.1 °F 60.8 °F 30.2 in SSW 4.5 mph 10.7 mph 92% 0 in 0 W/m2
02:13 63 °F 61 °F 30.2 in SSW 1.6 mph 10.7 mph 93% 0 in 0 W/m2
02:18 63 °F 61 °F 30.2 in SSW 4.5 mph 6.9 mph 93% 0 in 0 W/m2
02:23 63.3 °F 61.3 °F 30.2 in SSW 6 mph 8.3 mph 93% 0 in 0 W/m2
02:28 63.3 °F 61 °F 30.2 in South 5.4 mph 8.3 mph 92% 0 in 0 W/m2
02:33 63.5 °F 60.8 °F 30.2 in South 5.4 mph 8.3 mph 91% 0 in 0 W/m2
02:38 63.9 °F 60.6 °F 30.2 in South 4.5 mph 9.2 mph 89% 0 in 0 W/m2
02:43 64 °F 60.8 °F 30.2 in South 3.1 mph 9.2 mph 89% 0 in 0 W/m2
02:48 64.2 °F 61.2 °F 30.2 in SSE 5.4 mph 9.8 mph 90% 0 in 0 W/m2
02:53 64.2 °F 61.5 °F 30.2 in South 6.9 mph 11.4 mph 91% 0 in 0 W/m2
02:58 64.2 °F 61.5 °F 30.2 in South 9.8 mph 13.6 mph 91% 0 in 0 W/m2
03:03 64.2 °F 61 °F 30.2 in South 6 mph 13.6 mph 89% 0 in 0 W/m2
03:08 64.2 °F 61 °F 30.2 in South 5.4 mph 13 mph 89% 0 in 0 W/m2
03:13 64.2 °F 61 °F 30.2 in South 6 mph 11.4 mph 89% 0 in 0 W/m2
03:18 64.4 °F 61.2 °F 30.2 in South 5.4 mph 11.4 mph 89% 0 in 0 W/m2
03:23 64.2 °F 61 °F 30.2 in SSW 4.5 mph 10.7 mph 89% 0 in 0 W/m2
03:28 64.2 °F 61 °F 30.2 in SSW 5.4 mph 10.7 mph 89% 0 in 0 W/m2
03:33 64.2 °F 61 °F 30.2 in South 5.4 mph 10.7 mph 89% 0 in 0 W/m2
03:38 64 °F 60.4 °F 30.2 in South 6 mph 10.7 mph 88% 0 in 0 W/m2
03:43 64 °F 60.4 °F 30.2 in South 5.4 mph 10.7 mph 88% 0 in 0 W/m2
03:48 64 °F 60.4 °F 30.2 in SSW 3.8 mph 9.2 mph 88% 0 in 0 W/m2
03:53 64 °F 60.4 °F 30.2 in South 3.1 mph 9.2 mph 88% 0 in 0 W/m2
03:58 64 °F 60.4 °F 30.2 in South 2.2 mph 9.2 mph 88% 0 in 0 W/m2
04:03 64 °F 60.8 °F 30.2 in SSW 3.1 mph 6.9 mph 89% 0 in 0 W/m2
04:08 64.2 °F 61.2 °F 30.2 in South 3.1 mph 6.9 mph 90% 0 in 0 W/m2
04:13 64.2 °F 61.2 °F 30.2 in South 4.5 mph 6.9 mph 90% 0 in 0 W/m2
04:18 64.2 °F 61.2 °F 30.2 in SSW 6 mph 8.3 mph 90% 0 in 0 W/m2
04:23 64 °F 61.2 °F 30.2 in South 4.5 mph 8.3 mph 90% 0 in 0 W/m2
04:28 64 °F 61.3 °F 30.2 in South 3.8 mph 6.9 mph 91% 0 in 0 W/m2
04:33 64 °F 61.3 °F 30.2 in South 3.1 mph 6.9 mph 91% 0 in 0 W/m2
04:38 64 °F 61.3 °F 30.2 in South 5.4 mph 9.2 mph 91% 0 in 0 W/m2
04:43 64.2 °F 61.2 °F 30.2 in South 5.4 mph 15.2 mph 90% 0 in 0 W/m2
04:48 63.5 °F 59.9 °F 30.2 in South 2.2 mph 15.2 mph 88% 0 in 0 W/m2
04:53 63 °F 59.7 °F 30.2 in SE 3.1 mph 10.7 mph 89% 0 in 0 W/m2
04:58 62.8 °F 60.1 °F 30.2 in ESE 1.6 mph 6 mph 91% 0.01 in 0 W/m2
05:03 62.4 °F 60.4 °F 30.2 in ESE 0.7 mph 6 mph 93% 0.01 in 0 W/m2
05:08 62.1 °F 60.1 °F 30.2 in Calm   3.1 mph 93% 0.01 in 0 W/m2
05:13 61.9 °F 60.3 °F 30.2 in Calm   3.1 mph 94% 0.01 in 0 W/m2
05:18 61.7 °F 60.1 °F 30.2 in Calm   2.2 mph 94% 0.01 in 0 W/m2
05:23 61.7 °F 60.1 °F 30.2 in Calm     94% 0.01 in 0 W/m2
05:28 61.5 °F 59.7 °F 30.2 in Calm     94% 0.01 in 0 W/m2
05:33 61.3 °F 59.5 °F 30.2 in Calm     94% 0.01 in 0 W/m2
05:38 61.2 °F 59.4 °F 30.2 in Calm     94% 0.01 in 0 W/m2
05:43 61.2 °F 59.4 °F 30.2 in Calm     94% 0.01 in 0 W/m2
05:48 61.3 °F 59.5 °F 30.2 in Calm     94% 0.01 in 0 W/m2
05:53 61.3 °F 59.5 °F 30.2 in Calm     94% 0.01 in 0 W/m2
05:58 61.2 °F 59.7 °F 30.2 in Calm     95% 0 in 0 W/m2
06:03 61.2 °F 59.7 °F 30.2 in Calm     95% 0 in 0 W/m2
06:08 61.2 °F 59.7 °F 30.2 in Calm     95% 0 in 0 W/m2
06:13 61.2 °F 59.7 °F 30.2 in Calm     95% 0 in 0 W/m2
06:18 61.2 °F 59.7 °F 30.2 in West 0.7 mph 3.8 mph 95% 0 in 0 W/m2
06:22 61.2 °F 59.7 °F 30.2 in Calm   3.8 mph 95% 0 in 0 W/m2
06:27 61.2 °F 59.7 °F 30.2 in Calm   2.2 mph 95% 0 in 0 W/m2
06:32 61.2 °F 60.1 °F 30.2 in SW 3.1 mph 9.2 mph 96% 0 in 0 W/m2
06:37 62.1 °F 61.2 °F 30.2 in South 14.5 mph 20.6 mph 97% 0 in 0 W/m2
06:42 62.4 °F 61.3 °F 30.2 in South 12.1 mph 20.6 mph 96% 0 in 0 W/m2
06:47 62.4 °F 61.3 °F 30.2 in South 9.2 mph 20.6 mph 96% 0 in 0 W/m2
06:52 62.2 °F 61.2 °F 30.2 in South 6.9 mph 20.6 mph 96% 0 in 0 W/m2
06:57 61.9 °F 60.6 °F 30.2 in SSW 6 mph 13.6 mph 96% 0.01 in 0 W/m2
07:02 61.7 °F 61 °F 30.2 in SSW 3.8 mph 12.1 mph 97% 0.01 in 2 W/m2
07:07 61.7 °F 61 °F 30.2 in SW 4.5 mph 9.2 mph 97% 0.02 in 3 W/m2
07:12 61.5 °F 61 °F 30.2 in SW 3.8 mph 7.6 mph 98% 0.02 in 6 W/m2
07:17 61.7 °F 61.2 °F 30.2 in SSW 3.1 mph 8.3 mph 98% 0.02 in 8 W/m2
07:22 61.7 °F 61.2 °F 30.2 in SW 3.8 mph 8.3 mph 98% 0.02 in 3 W/m2
07:27 61.7 °F 61.2 °F 30.2 in SSW 6.9 mph 9.2 mph 98% 0.02 in 9 W/m2
07:32 61.2 °F 60.6 °F 30.2 in South 3.8 mph 9.2 mph 98% 0.02 in 10 W/m2
07:37 61.5 °F 60.6 °F 30.2 in South 5.4 mph 8.3 mph 97% 0.02 in 12 W/m2
07:42 61.9 °F 60.6 °F 30.2 in South 3.8 mph 7.6 mph 96% 0.02 in 21 W/m2
07:47 62.4 °F 60.4 °F 30.2 in SSW 6.9 mph 13.6 mph 93% 0.02 in 43 W/m2
07:52 63 °F 59.4 °F 30.2 in SSW 6 mph 13.6 mph 88% 0.02 in 53 W/m2
07:57 63.1 °F 58.6 °F 30.2 in SSW 6 mph 11.4 mph 85% 0.01 in 110 W/m2
08:02 63.5 °F 58.6 °F 30.2 in South 6 mph 13 mph 84% 0.02 in 50 W/m2
08:07 63.7 °F 58.5 °F 30.2 in South 6 mph 13 mph 83% 0.01 in 55 W/m2
08:12 63.9 °F 58.3 °F 30.2 in SSW 6.9 mph 12.1 mph 82% 0.01 in 52 W/m2
08:17 63.9 °F 58.3 °F 30.2 in SW 6.9 mph 12.1 mph 82% 0.01 in 67 W/m2
08:22 63.9 °F 58.6 °F 30.2 in SW 6.9 mph 13.6 mph 83% 0.01 in 68 W/m2
08:27 63.9 °F 58.3 °F 30.2 in SSW 9.2 mph 13.6 mph 82% 0.01 in 73 W/m2
08:32 63.9 °F 58.3 °F 30.2 in South 8.3 mph 14.5 mph 82% 0.01 in 83 W/m2
08:37 63.9 °F 57.9 °F 30.2 in South 4.5 mph 14.5 mph 81% 0.01 in 99 W/m2
08:42 64 °F 57.7 °F 30.2 in South 7.6 mph 13.6 mph 80% 0.01 in 127 W/m2
08:47 64.4 °F 57.7 °F 30.2 in South 9.8 mph 14.5 mph 79% 0.01 in 136 W/m2
08:52 64.4 °F 58.1 °F 30.2 in South 4.5 mph 14.5 mph 80% 0.01 in 111 W/m2
08:57 64.4 °F 57.4 °F 30.2 in SSW 7.6 mph 13.6 mph 78% 0.01 in 112 W/m2
09:02 64.4 °F 57.4 °F 30.2 in SW 9.2 mph 13 mph 78% 0 in 102 W/m2
09:07 64.4 °F 57.4 °F 30.2 in SSW 6.9 mph 12.1 mph 78% 0 in 102 W/m2
09:12 64.4 °F 57.7 °F 30.2 in SSW 5.4 mph 11.4 mph 79% 0 in 64 W/m2
09:17 64 °F 58.8 °F 30.2 in SSW 6 mph 13 mph 83% 0 in 59 W/m2
09:22 63.5 °F 58.8 °F 30.2 in SW 6 mph 13 mph 85% 0 in 79 W/m2
09:27 63.3 °F 59.4 °F 30.2 in SW 7.6 mph 12.1 mph 87% 0 in 115 W/m2
09:32 63.3 °F 59.2 °F 30.2 in SW 10.7 mph 15.2 mph 86% 0 in 155 W/m2
09:37 63.5 °F 59.4 °F 30.2 in SW 6.9 mph 15.2 mph 86% 0 in 186 W/m2
09:42 63.9 °F 59.4 °F 30.2 in SW 6.9 mph 15.2 mph 85% 0 in 186 W/m2
09:47 64 °F 59.5 °F 30.2 in SW 7.6 mph 15.2 mph 85% 0 in 196 W/m2
09:52 64 °F 59.2 °F 30.2 in SW 7.6 mph 15.2 mph 84% 0 in 217 W/m2
09:57 64.4 °F 59.7 °F 30.2 in SW 8.3 mph 15.2 mph 85% 0 in 220 W/m2
10:02 64.4 °F 59.7 °F 30.2 in SW 10.7 mph 16.8 mph 85% 0 in 222 W/m2
10:07 64.6 °F 60.1 °F 30.2 in SW 6.9 mph 16.8 mph 85% 0 in 235 W/m2
10:12 64.8 °F 60.3 °F 30.2 in SSW 11.4 mph 14.5 mph 85% 0 in 282 W/m2
10:17 64.9 °F 60.3 °F 30.2 in SW 11.4 mph 15.2 mph 85% 0 in 238 W/m2
10:22 64.8 °F 59.7 °F 30.2 in SW 10.7 mph 15.2 mph 84% 0 in 269 W/m2
10:27 64.6 °F 60.1 °F 30.2 in SW 9.2 mph 15.2 mph 85% 0 in 197 W/m2
10:32 64.4 °F 59.7 °F 30.2 in SW 12.1 mph 14.5 mph 85% 0 in 466 W/m2
10:37 65.8 °F 61.2 °F 30.2 in SW 11.4 mph 15.2 mph 85% 0 in 320 W/m2
10:42 65.7 °F 60.1 °F 30.2 in SW 9.8 mph 15.2 mph 82% 0 in 267 W/m2
10:47 66.2 °F 60.3 °F 30.2 in SW 9.8 mph 15.2 mph 81% 0 in 367 W/m2
10:52 66.2 °F 59.9 °F 30.2 in SW 9.2 mph 17.4 mph 80% 0 in 341 W/m2
10:57 66 °F 60.1 °F 30.2 in SW 9.8 mph 17.4 mph 81% 0 in 331 W/m2
11:02 66 °F 60.4 °F 30.2 in WSW 11.4 mph 14.5 mph 82% 0 in 756 W/m2
11:07 66.9 °F 59.9 °F 30.2 in SW 7.6 mph 15.9 mph 78% 0 in 305 W/m2
11:12 66.2 °F 59.5 °F 30.2 in SSW 5.4 mph 15.9 mph 79% 0 in 116 W/m2
11:17 65.7 °F 59.7 °F 30.2 in SSW 6 mph 11.4 mph 81% 0 in 151 W/m2
11:22 64.8 °F 58.8 °F 30.2 in SW 8.3 mph 13.6 mph 81% 0 in 224 W/m2
11:27 64.4 °F 59.2 °F 30.2 in SW 9.8 mph 14.5 mph 83% 0 in 136 W/m2
11:32 64.2 °F 59 °F 30.2 in SW 6 mph 14.5 mph 83% 0 in 604 W/m2
11:37 65.3 °F 60.4 °F 30.2 in SW 9.8 mph 14.5 mph 84% 0 in 347 W/m2
11:42 65.5 °F 59.9 °F 30.2 in SW 10.7 mph 14.5 mph 82% 0 in 369 W/m2
11:47 66 °F 60.1 °F 30.2 in SW 9.2 mph 15.2 mph 81% 0 in 375 W/m2
11:52 65.8 °F 59.2 °F 30.2 in SSW 6.9 mph 15.2 mph 79% 0 in 478 W/m2
11:57 66.2 °F 59.2 °F 30.2 in SW 8.3 mph 14.5 mph 78% 0 in 448 W/m2
12:02 66.2 °F 59.2 °F 30.2 in SSW 6.9 mph 14.5 mph 78% 0 in 381 W/m2
12:07 66.4 °F 59 °F 30.2 in SW 9.2 mph 13.6 mph 77% 0 in 379 W/m2
12:12 66.4 °F 59.4 °F 30.2 in SW 7.6 mph 12.1 mph 78% 0 in 420 W/m2
12:17 66.4 °F 59 °F 30.2 in SW 8.3 mph 13 mph 77% 0 in 526 W/m2
12:36 67.1 °F 58.8 °F 30.2 in SW 6 mph 15.9 mph 75% 0 in 666 W/m2
12:41 67.5 °F 59.4 °F 30.2 in SW 9.2 mph 15.9 mph 75% 0 in 341 W/m2
12:46 67.3 °F 59.5 °F 30.2 in SW 7.6 mph 15.2 mph 76% 0 in 326 W/m2
12:51 66.4 °F 58.3 °F 30.2 in SSW 7.6 mph 15.2 mph 75% 0 in 315 W/m2
12:56 66.4 °F 58.3 °F 30.2 in SSW 6 mph 14.5 mph 75% 0 in 303 W/m2
13:01 66 °F 57.9 °F 30.2 in SW 6 mph 13.6 mph 75% 0 in 1084 W/m2
13:06 66.7 °F 58.3 °F 30.2 in SW 6 mph 13.6 mph 74% 0 in 330 W/m2
13:11 67.5 °F 57.7 °F 30.2 in SW 5.4 mph 13 mph 71% 0 in 279 W/m2
13:16 66.7 °F 56.3 °F 30.2 in SW 5.4 mph 13 mph 69% 0 in 292 W/m2
13:21 66.7 °F 56.7 °F 30.2 in SSW 6 mph 10.7 mph 70% 0 in 318 W/m2
13:26 66.7 °F 57 °F 30.2 in SSW 6.9 mph 10.7 mph 71% 0 in 330 W/m2
13:31 66.4 °F 56.3 °F 30.2 in SSW 6 mph 11.4 mph 70% 0 in 261 W/m2
13:36 66.6 °F 56.5 °F 30.2 in SSW 9.2 mph 11.4 mph 70% 0 in 319 W/m2
13:41 66.7 °F 57 °F 30.2 in SSW 6 mph 10.7 mph 71% 0 in 298 W/m2
13:57 67.8 °F 58.1 °F 30.2 in South 5.4 mph 6.9 mph 71% 0 in 490 W/m2
14:03 67.5 °F 56.1 °F 30.2 in SSW 6 mph 9.8 mph 67% 0 in 696 W/m2
14:08 68 °F 56.7 °F 30.2 in SSW 7.6 mph 12.1 mph 67% 0 in 1021 W/m2
14:13 68.9 °F 56.7 °F 30.2 in SSW 3.1 mph 12.1 mph 65% 0 in 977 W/m2
14:18 67.6 °F 55.9 °F 30.2 in South 7.6 mph 11.4 mph 66% 0 in 970 W/m2
14:23 68.4 °F 56.1 °F 30.2 in South 3.8 mph 13 mph 65% 0 in 289 W/m2
14:28 68.9 °F 56.7 °F 30.2 in South 9.2 mph 13 mph 65% 0 in 979 W/m2
14:33 68.4 °F 55.8 °F 30.2 in South 6.9 mph 11.4 mph 64% 0 in 338 W/m2
14:38 68.5 °F 55.9 °F 30.2 in South 6 mph 11.4 mph 64% 0 in 765 W/m2
14:43 68.7 °F 56.1 °F 30.2 in South 8.3 mph 10.7 mph 64% 0 in 681 W/m2
14:48 68.5 °F 55.9 °F 30.2 in SSW 5.4 mph 10.7 mph 64% 0 in 571 W/m2
14:53 69.1 °F 56.5 °F 30.2 in SSW 3.8 mph 10.7 mph 64% 0 in 765 W/m2
14:58 68.7 °F 55.2 °F 30.2 in SSW 6.9 mph 12.1 mph 62% 0 in 535 W/m2
15:03 68.9 °F 55.4 °F 30.2 in SW 6 mph 12.1 mph 62% 0 in 586 W/m2
15:08 68.9 °F 56.7 °F 30.2 in SSW 4.5 mph 12.1 mph 65% 0 in 470 W/m2
15:13 68.9 °F 55.8 °F 30.2 in South 7.6 mph 11.4 mph 63% 0 in 621 W/m2
15:18 68.7 °F 55.6 °F 30.2 in South 7.6 mph 11.4 mph 63% 0 in 590 W/m2
15:23 68.4 °F 54.9 °F 30.2 in South 4.5 mph 12.1 mph 62% 0 in 676 W/m2
15:28 69.4 °F 56.3 °F 30.2 in South 6.9 mph 12.1 mph 63% 0 in 505 W/m2
15:33 69.6 °F 56.8 °F 30.2 in South 7.6 mph 10.7 mph 64% 0 in 541 W/m2
15:38 69.8 °F 56.1 °F 30.1 in South 6 mph 9.8 mph 62% 0 in 626 W/m2
15:43 69.3 °F 56.1 °F 30.2 in South 6.9 mph 10.7 mph 63% 0 in 575 W/m2
15:48 69.6 °F 56.5 °F 30.1 in South 3.1 mph 10.7 mph 63% 0 in 612 W/m2
15:53 70.2 °F 56.7 °F 30.1 in South 6 mph 9.8 mph 62% 0 in 554 W/m2
15:58 69.3 °F 55.8 °F 30.1 in South 6 mph 10.7 mph 62% 0 in 521 W/m2
16:03 69.4 °F 56.3 °F 30.1 in South 6 mph 10.7 mph 63% 0 in 368 W/m2
16:08 70.2 °F 56.7 °F 30.1 in SSW 8.3 mph 11.4 mph 62% 0 in 417 W/m2
16:13 70.3 °F 56.3 °F 30.1 in South 5.4 mph 11.4 mph 61% 0 in 380 W/m2
16:18 69.6 °F 55.6 °F 30.1 in South 5.4 mph 9.8 mph 61% 0 in 432 W/m2
16:23 70.9 °F 56.8 °F 30.1 in South 5.4 mph 9.2 mph 61% 0 in 426 W/m2
16:28 70.2 °F 56.7 °F 30.1 in SSE 6 mph 9.8 mph 62% 0 in 395 W/m2
16:33 70.9 °F 57.2 °F 30.1 in South 2.2 mph 9.8 mph 62% 0 in 340 W/m2
16:38 72 °F 57.7 °F 30.1 in South 3.1 mph 9.2 mph 61% 0 in 173 W/m2
16:43 72 °F 56.5 °F 30.1 in South 3.1 mph 8.3 mph 58% 0 in 116 W/m2
16:59 72 °F 56.5 °F 30.1 in South 2.2 mph 9.8 mph 58% 0 in 464 W/m2
17:04 72.1 °F 56.1 °F 30.1 in South 6 mph 10.7 mph 57% 0 in 454 W/m2
17:09 70.3 °F 55.8 °F 30.1 in South 6 mph 10.7 mph 60% 0 in 101 W/m2
17:14 68.7 °F 56.1 °F 30.1 in SSE 5.4 mph 9.2 mph 64% 0 in 124 W/m2
17:19 68.5 °F 56.3 °F 30.1 in South 3.8 mph 8.3 mph 65% 0 in 391 W/m2
17:24 69.6 °F 56.5 °F 30.1 in South 6 mph 8.3 mph 63% 0 in 379 W/m2
17:29 69.1 °F 56.5 °F 30.1 in South 6 mph 8.3 mph 64% 0 in 358 W/m2
17:34 70 °F 56.5 °F 30.1 in SSE 3.8 mph 9.2 mph 62% 0 in 373 W/m2
17:39 69.8 °F 55.2 °F 30.1 in South 3.1 mph 9.2 mph 60% 0 in 94 W/m2
17:44 69.6 °F 56.5 °F 30.1 in SSE 1.6 mph 6 mph 63% 0 in 236 W/m2
17:49 69.4 °F 56.3 °F 30.1 in SSE 3.8 mph 8.3 mph 63% 0 in 253 W/m2
17:54 70 °F 56.5 °F 30.1 in SSW 4.5 mph 8.3 mph 62% 0 in 272 W/m2
17:59 70.2 °F 55.2 °F 30.1 in South 2.2 mph 7.6 mph 59% 0 in 252 W/m2
18:04 71.2 °F 56.1 °F 30.1 in SSE 3.8 mph 7.6 mph 59% 0 in 238 W/m2
18:09 71.1 °F 56.5 °F 30.1 in South 2.2 mph 6 mph 60% 0 in 228 W/m2
18:14 71.8 °F 56.7 °F 30.1 in South 3.8 mph 5.4 mph 59% 0 in 213 W/m2
18:19 71.4 °F 56.5 °F 30.1 in South 1.6 mph 6 mph 59% 0 in 194 W/m2
18:24 71.6 °F 56.1 °F 30.1 in South 3.1 mph 6 mph 58% 0 in 170 W/m2
18:29 70.3 °F 54.9 °F 30.1 in South 3.1 mph 6 mph 58% 0 in 80 W/m2
18:34 68.9 °F 55.4 °F 30.1 in SSE 3.1 mph 6 mph 62% 0 in 103 W/m2
18:39 68.4 °F 55.2 °F 30.1 in SSE 4.5 mph 6 mph 63% 0 in 50 W/m2
18:44 66.9 °F 54.9 °F 30.1 in South 2.2 mph 6 mph 65% 0 in 53 W/m2
18:49 66.7 °F 55 °F 30.1 in South 0.7 mph 6 mph 66% 0 in 52 W/m2
18:54 66.9 °F 55.2 °F 30.1 in South 0.7 mph 3.8 mph 66% 0 in 45 W/m2
19:12 68 °F 55.8 °F 30.1 in South 3.1 mph 4.5 mph 65% 0 in 47 W/m2
19:17 67.6 °F 55.9 °F 30.1 in South 1.6 mph 4.5 mph 66% 0 in 41 W/m2
19:22 66.7 °F 55.6 °F 30.1 in South 0.7 mph 4.5 mph 67% 0 in 31 W/m2
19:27 66 °F 55.6 °F 30.1 in SSE 2.2 mph 3.8 mph 69% 0 in 30 W/m2
19:32 65.5 °F 55.6 °F 30.1 in SSE 0.7 mph 3.8 mph 70% 0 in 24 W/m2
19:37 64.9 °F 55.2 °F 30.1 in South 1.6 mph 3.8 mph 71% 0 in 21 W/m2
19:42 64.6 °F 54.7 °F 30.1 in SSE 0.7 mph 3.8 mph 70% 0 in 16 W/m2
19:47 64.2 °F 55 °F 30.1 in Calm   3.1 mph 72% 0 in 13 W/m2
19:52 63.7 °F 54.5 °F 30.1 in Calm   3.1 mph 72% 0 in 8 W/m2
19:57 63.3 °F 54.1 °F 30.1 in Calm   0.7 mph 72% 0 in 4 W/m2
20:02 62.8 °F 54 °F 30.1 in Calm   0.7 mph 73% 0 in 2 W/m2
20:07 62.4 °F 54.3 °F 30.1 in Calm   0.7 mph 75% 0 in 0 W/m2
20:12 61.9 °F 54 °F 30.1 in Calm   0.7 mph 75% 0 in 0 W/m2
20:17 61.2 °F 53.2 °F 30.1 in Calm     75% 0 in 0 W/m2
20:22 61.2 °F 53.6 °F 30.1 in Calm     76% 0 in 0 W/m2
20:27 61.2 °F 54 °F 30.1 in Calm     77% 0 in 0 W/m2
20:32 61 °F 54.1 °F 30.1 in Calm     78% 0 in 0 W/m2
20:37 60.8 °F 54.3 °F 30.1 in Calm     79% 0 in 0 W/m2
20:42 60.4 °F 54.7 °F 30.1 in Calm     81% 0 in 0 W/m2
20:47 60.3 °F 55 °F 30.1 in Calm     83% 0 in 0 W/m2
20:52 59.9 °F 54.7 °F 30.1 in Calm     83% 0 in 0 W/m2
20:57 59.5 °F 54.3 °F 30.1 in Calm     83% 0 in 0 W/m2
21:02 59.2 °F 54 °F 30.1 in Calm     83% 0 in 0 W/m2
21:07 59.2 °F 54.7 °F 30.1 in North 0.7 mph 2.2 mph 85% 0 in 0 W/m2
21:12 59 °F 54.9 °F 30.1 in Calm   2.2 mph 86% 0 in 0 W/m2
21:17 58.8 °F 55 °F 30.1 in Calm   1.6 mph 87% 0 in 0 W/m2
21:22 58.8 °F 55.2 °F 30.1 in NW 0.7 mph 2.2 mph 88% 0 in 0 W/m2
21:27 58.5 °F 54.9 °F 30.1 in NW 0.7 mph 2.2 mph 88% 0 in 0 W/m2
21:32 58.3 °F 55 °F 30.1 in Calm   1.6 mph 89% 0 in 0 W/m2
21:37 58.1 °F 54.9 °F 30.1 in Calm   2.2 mph 89% 0 in 0 W/m2
21:42 57.9 °F 55 °F 30.1 in NNW 0.7 mph 2.2 mph 90% 0 in 0 W/m2
21:47 57.9 °F 55.2 °F 30.1 in Calm   1.6 mph 91% 0 in 0 W/m2
21:52 57.9 °F 55.6 °F 30.1 in Calm   1.6 mph 92% 0 in 0 W/m2
21:57 57.7 °F 55.8 °F 30.1 in North 0.7 mph 2.2 mph 93% 0 in 0 W/m2
22:02 57.6 °F 55.6 °F 30.1 in Calm   2.2 mph 93% 0 in 0 W/m2
22:07 57.4 °F 55.8 °F 30.1 in Calm   2.2 mph 94% 0 in 0 W/m2
22:12 57.4 °F 55.8 °F 30.1 in Calm   1.6 mph 94% 0 in 0 W/m2
22:17 57.2 °F 55.6 °F 30.1 in Calm     94% 0 in 0 W/m2
22:22 57 °F 55.9 °F 30.1 in Calm     96% 0 in 0 W/m2
22:27 56.8 °F 55.8 °F 30.1 in Calm     96% 0 in 0 W/m2
22:32 56.5 °F 55.4 °F 30.1 in Calm     96% 0 in 0 W/m2
22:37 56.3 °F 55.2 °F 30.1 in Calm     96% 0 in 0 W/m2
22:42 56.1 °F 55 °F 30.1 in NW 0.7 mph 1.6 mph 96% 0 in 0 W/m2
22:47 56.1 °F 55 °F 30.1 in NNW 1.6 mph 3.8 mph 96% 0 in 0 W/m2
22:52 55.9 °F 55 °F 30.1 in NNW 0.7 mph 3.8 mph 97% 0 in 0 W/m2
22:57 55.9 °F 55 °F 30.1 in North 0.7 mph 3.1 mph 97% 0 in 0 W/m2
23:02 55.8 °F 54.9 °F 30.1 in North 0.7 mph 2.2 mph 97% 0 in 0 W/m2
23:07 55.6 °F 54.9 °F 30.1 in NNW 0.7 mph 2.2 mph 97% 0 in 0 W/m2
23:12 55.4 °F 54.7 °F 30.1 in Calm   2.2 mph 97% 0 in 0 W/m2
23:17 55.4 °F 54.7 °F 30.1 in Calm   2.2 mph 97% 0 in 0 W/m2
23:22 55.4 °F 54.7 °F 30.1 in Calm     97% 0 in 0 W/m2
23:27 55.2 °F 54.3 °F 30.1 in Calm   1.6 mph 97% 0 in 0 W/m2
23:32 55 °F 54.1 °F 30.1 in Calm   2.2 mph 97% 0 in 0 W/m2
23:37 55 °F 54.1 °F 30.1 in Calm   2.2 mph 97% 0 in 0 W/m2
23:42 55 °F 54.1 °F 30.1 in NNW 1.6 mph 3.1 mph 97% 0 in 0 W/m2
23:47 54.9 °F 54 °F 30.1 in Calm   3.1 mph 97% 0 in 0 W/m2
23:52 54.9 °F 54 °F 30.1 in Calm   3.1 mph 97% 0 in 0 W/m2
23:57 54.9 °F 54 °F 30.1 in Calm   2.2 mph 97% 0 in 0 W/m2
Northern Hawkes Bay. New Zealand Historic Data
Compliments of Weather Underground - 2 mb